createdAt,value
2018-09-30T00:00:30.586Z,8.93
2018-09-30T00:01:10.997Z,8.96
2018-09-30T00:01:51.416Z,8.96
2018-09-30T00:02:31.797Z,8.98
2018-09-30T00:03:12.203Z,8.88
2018-09-30T00:03:52.646Z,8.88
2018-09-30T00:04:33.048Z,8.88
2018-09-30T00:05:13.477Z,8.94
2018-09-30T00:05:53.880Z,8.93
2018-09-30T00:07:31.238Z,8.91
2018-09-30T00:08:11.514Z,8.88
2018-09-30T00:08:51.909Z,8.76
2018-09-30T00:09:32.342Z,8.79
2018-09-30T00:10:12.764Z,8.76
2018-09-30T00:10:53.186Z,8.89
2018-09-30T00:11:33.592Z,8.91
2018-09-30T00:12:13.987Z,8.91
2018-09-30T00:12:54.427Z,9.03
2018-09-30T00:13:34.795Z,9.04
2018-09-30T00:14:15.240Z,9.15
2018-09-30T00:14:55.625Z,9.12
2018-09-30T00:15:36.048Z,9.06
2018-09-30T00:16:16.450Z,9.15
2018-09-30T00:16:56.891Z,9.23
2018-09-30T00:17:37.256Z,9.24
2018-09-30T00:18:17.693Z,9.45
2018-09-30T00:18:58.092Z,9.48
2018-09-30T00:19:38.530Z,9.56
2018-09-30T00:20:18.870Z,9.65
2018-09-30T00:20:59.268Z,9.74
2018-09-30T00:21:39.736Z,9.83
2018-09-30T00:22:20.104Z,9.92
2018-09-30T00:23:00.483Z,9.86
2018-09-30T00:23:40.873Z,9.91
2018-09-30T00:24:21.254Z,9.75
2018-09-30T00:26:15.825Z,9.6
2018-09-30T00:28:04.559Z,9.45
2018-09-30T00:28:45.061Z,9.4
2018-09-30T00:29:25.480Z,9.35
2018-09-30T00:30:05.869Z,9.3
2018-09-30T00:30:46.250Z,9.17
2018-09-30T00:31:26.687Z,9.16
2018-09-30T00:32:07.069Z,9.03
2018-09-30T00:32:47.508Z,9.12
2018-09-30T00:33:27.907Z,9.06
2018-09-30T00:34:08.267Z,8.94
2018-09-30T00:34:48.715Z,8.94
2018-09-30T00:35:29.076Z,8.91
2018-09-30T00:36:09.487Z,8.78
2018-09-30T00:36:49.917Z,8.8
2018-09-30T00:37:30.278Z,8.88
2018-09-30T00:39:43.055Z,8.94
2018-09-30T00:40:25.317Z,9.1
2018-09-30T00:41:05.729Z,9.08
2018-09-30T00:41:46.103Z,9.1
2018-09-30T00:42:26.479Z,9.2
2018-09-30T00:43:06.914Z,9.13
2018-09-30T00:43:47.254Z,9.16
2018-09-30T00:44:27.683Z,9.16
2018-09-30T00:45:08.102Z,9.17
2018-09-30T00:45:48.499Z,9.08
2018-09-30T00:46:28.924Z,9.04
2018-09-30T00:47:09.311Z,9.08
2018-09-30T00:47:49.752Z,8.89
2018-09-30T00:48:30.142Z,8.94
2018-09-30T00:49:10.541Z,8.88
2018-09-30T00:49:50.941Z,8.78
2018-09-30T00:50:31.355Z,8.76
2018-09-30T00:51:11.753Z,8.65
2018-09-30T00:51:52.101Z,8.67
2018-09-30T00:52:32.525Z,8.57
2018-09-30T00:54:45.325Z,8.46
2018-09-30T00:55:25.570Z,8.49
2018-09-30T00:56:05.973Z,8.45
2018-09-30T00:56:46.376Z,8.36
2018-09-30T00:57:26.799Z,8.4
2018-09-30T00:58:07.213Z,8.43
2018-09-30T00:58:47.610Z,8.49
2018-09-30T01:00:26.790Z,8.45
2018-09-30T01:01:07.210Z,8.49
2018-09-30T01:01:47.607Z,8.46
2018-09-30T01:02:28.024Z,8.42
2018-09-30T01:03:08.486Z,8.45
2018-09-30T01:03:48.915Z,8.37
2018-09-30T01:04:29.294Z,8.4
2018-09-30T01:05:09.706Z,8.4
2018-09-30T01:05:50.129Z,8.39
2018-09-30T01:06:30.557Z,8.39
2018-09-30T01:08:07.758Z,8.31
2018-09-30T01:08:48.150Z,8.29
2018-09-30T01:09:28.532Z,8.28
2018-09-30T01:10:08.951Z,8.37
2018-09-30T01:10:49.349Z,8.39
2018-09-30T01:11:29.735Z,8.37
2018-09-30T01:12:10.158Z,8.27
2018-09-30T01:12:50.576Z,8.28
2018-09-30T01:13:30.975Z,8.36
2018-09-30T01:14:11.357Z,8.2
2018-09-30T01:16:07.762Z,8.32
2018-09-30T01:16:49.145Z,8.14
2018-09-30T01:17:29.571Z,8.24
2018-09-30T01:18:10.049Z,8.18
2018-09-30T01:20:02.943Z,8.28
2018-09-30T01:20:43.096Z,8.31
2018-09-30T01:21:23.436Z,8.32
2018-09-30T01:22:03.834Z,8.25
2018-09-30T01:22:44.261Z,8.28
2018-09-30T01:23:24.687Z,8.21
2018-09-30T01:24:05.063Z,8.22
2018-09-30T01:24:45.513Z,8.12
2018-09-30T01:25:25.936Z,8.17
2018-09-30T01:26:06.325Z,8.18
2018-09-30T01:26:46.758Z,8.04
2018-09-30T01:27:27.167Z,8.07
2018-09-30T01:28:07.583Z,8.02
2018-09-30T01:28:47.991Z,7.99
2018-09-30T01:29:28.409Z,7.94
2018-09-30T01:30:08.761Z,7.95
2018-09-30T01:30:49.169Z,8.07
2018-09-30T01:31:29.592Z,8.12
2018-09-30T01:32:09.996Z,8.1
2018-09-30T01:32:50.447Z,8.12
2018-09-30T01:33:30.838Z,8.1
2018-09-30T01:34:11.233Z,8.07
2018-09-30T01:34:51.658Z,8.06
2018-09-30T01:35:32.040Z,8.12
2018-09-30T01:36:12.447Z,8.1
2018-09-30T01:36:52.820Z,8.12
2018-09-30T01:38:41.575Z,8.03
2018-09-30T01:39:23.096Z,8.04
2018-09-30T01:40:03.140Z,8.04
2018-09-30T01:40:43.619Z,7.95
2018-09-30T01:41:23.977Z,7.92
2018-09-30T01:42:04.402Z,7.99
2018-09-30T01:42:44.844Z,7.92
2018-09-30T01:43:25.215Z,7.95
2018-09-30T01:44:05.602Z,8
2018-09-30T01:44:46.081Z,7.94
2018-09-30T01:45:26.445Z,7.91
2018-09-30T01:46:06.856Z,7.95
2018-09-30T01:46:47.229Z,7.96
2018-09-30T01:48:41.661Z,7.94
2018-09-30T01:49:21.999Z,7.81
2018-09-30T01:50:02.344Z,7.81
2018-09-30T01:50:42.744Z,7.84
2018-09-30T01:51:23.152Z,7.84
2018-09-30T01:52:03.563Z,7.84
2018-09-30T01:52:43.944Z,7.84
2018-09-30T01:53:24.352Z,7.84
2018-09-30T01:55:36.835Z,7.69
2018-09-30T01:56:17.266Z,7.74
2018-09-30T01:56:57.653Z,7.77
2018-09-30T01:57:38.076Z,7.84
2018-09-30T01:58:18.490Z,7.74
2018-09-30T01:58:58.895Z,7.71
2018-09-30T01:59:39.294Z,7.73
2018-09-30T02:00:19.711Z,7.76
2018-09-30T02:01:00.141Z,7.57
2018-09-30T02:01:40.516Z,7.74
2018-09-30T02:02:20.926Z,7.66
2018-09-30T02:04:33.390Z,7.71
2018-09-30T02:05:13.790Z,7.67
2018-09-30T02:05:54.181Z,7.66
2018-09-30T02:06:34.587Z,7.63
2018-09-30T02:07:15.005Z,7.62
2018-09-30T02:07:55.419Z,7.67
2018-09-30T02:08:35.816Z,7.58
2018-09-30T02:09:16.273Z,7.63
2018-09-30T02:09:56.677Z,7.6
2018-09-30T02:10:37.077Z,7.7
2018-09-30T02:11:17.503Z,7.62
2018-09-30T02:11:57.951Z,7.58
2018-09-30T02:12:38.326Z,7.55
2018-09-30T02:13:18.746Z,7.63
2018-09-30T02:13:59.153Z,7.6
2018-09-30T02:15:46.436Z,7.73
2018-09-30T02:16:26.836Z,7.69
2018-09-30T02:17:07.251Z,7.73
2018-09-30T02:17:47.616Z,7.79
2018-09-30T02:18:28.006Z,7.79
2018-09-30T02:19:08.405Z,7.85
2018-09-30T02:20:58.378Z,7.84
2018-09-30T02:21:38.854Z,7.96
2018-09-30T02:22:19.243Z,7.95
2018-09-30T02:22:59.657Z,7.95
2018-09-30T02:23:40.068Z,7.96
2018-09-30T02:24:20.489Z,7.99
2018-09-30T02:25:00.887Z,8.04
2018-09-30T02:25:41.379Z,8.04
2018-09-30T02:26:21.743Z,8.03
2018-09-30T02:27:02.102Z,8.02
2018-09-30T02:27:42.527Z,8
2018-09-30T02:28:22.869Z,7.94
2018-09-30T02:29:03.285Z,7.96
2018-09-30T02:29:43.719Z,7.96
2018-09-30T02:30:24.119Z,7.91
2018-09-30T02:31:04.574Z,7.89
2018-09-30T02:31:44.944Z,7.85
2018-09-30T02:32:25.361Z,7.88
2018-09-30T02:33:05.959Z,7.74
2018-09-30T02:33:46.201Z,7.66
2018-09-30T02:34:26.602Z,7.63
2018-09-30T02:35:06.986Z,7.7
2018-09-30T02:35:47.428Z,7.57
2018-09-30T02:36:27.825Z,7.57
2018-09-30T02:37:08.224Z,7.67
2018-09-30T02:37:48.612Z,7.63
2018-09-30T02:38:29.010Z,7.62
2018-09-30T02:39:09.410Z,7.7
2018-09-30T02:39:49.819Z,7.85
2018-09-30T02:40:30.269Z,7.85
2018-09-30T02:41:10.650Z,7.82
2018-09-30T02:41:51.040Z,7.85
2018-09-30T02:42:31.424Z,7.84
2018-09-30T02:43:11.882Z,7.84
2018-09-30T02:43:52.264Z,7.77
2018-09-30T02:45:51.677Z,7.85
2018-09-30T02:46:32.077Z,7.77
2018-09-30T02:47:12.490Z,7.79
2018-09-30T02:47:52.903Z,7.76
2018-09-30T02:48:33.293Z,7.66
2018-09-30T02:49:13.728Z,7.67
2018-09-30T02:49:54.089Z,7.63
2018-09-30T02:50:34.521Z,7.57
2018-09-30T02:51:14.910Z,7.63
2018-09-30T02:51:55.324Z,7.58
2018-09-30T02:54:11.105Z,7.63
2018-09-30T02:54:53.232Z,7.6
2018-09-30T02:55:33.496Z,7.6
2018-09-30T02:56:13.924Z,7.63
2018-09-30T02:56:54.347Z,7.62
2018-09-30T02:57:34.759Z,7.62
2018-09-30T02:58:15.180Z,7.63
2018-09-30T02:58:55.574Z,7.71
2018-09-30T02:59:36.051Z,7.69
2018-09-30T03:00:16.609Z,7.73
2018-09-30T03:00:56.978Z,7.85
2018-09-30T03:01:37.523Z,7.84
2018-09-30T03:02:17.831Z,7.84
2018-09-30T03:02:58.290Z,7.86
2018-09-30T03:03:38.723Z,7.85
2018-09-30T03:04:19.117Z,7.77
2018-09-30T03:04:59.570Z,7.76
2018-09-30T03:05:39.960Z,7.71
2018-09-30T03:06:20.435Z,7.73
2018-09-30T03:07:00.818Z,7.76
2018-09-30T03:07:44.002Z,7.71
2018-09-30T03:08:22.706Z,7.76
2018-09-30T03:09:03.183Z,7.73
2018-09-30T03:09:43.961Z,7.66
2018-09-30T03:10:24.445Z,7.58
2018-09-30T03:11:04.840Z,7.66
2018-09-30T03:11:45.211Z,7.58
2018-09-30T03:12:25.691Z,7.62
2018-09-30T03:13:06.761Z,7.63
2018-09-30T03:13:47.188Z,7.74
2018-09-30T03:14:27.609Z,7.62
2018-09-30T03:15:08.000Z,7.69
2018-09-30T03:15:48.402Z,7.7
2018-09-30T03:16:28.822Z,7.71
2018-09-30T03:17:09.246Z,7.66
2018-09-30T03:17:49.641Z,7.63
2018-09-30T03:18:30.044Z,7.63
2018-09-30T03:19:10.448Z,7.76
2018-09-30T03:19:50.914Z,7.81
2018-09-30T03:20:31.460Z,7.92
2018-09-30T03:21:11.855Z,8.02
2018-09-30T03:21:52.248Z,8.22
2018-09-30T03:22:32.984Z,8.14
2018-09-30T03:23:13.387Z,8.13
2018-09-30T03:23:55.383Z,8
2018-09-30T03:24:35.787Z,7.96
2018-09-30T03:25:16.210Z,7.94
2018-09-30T03:25:56.655Z,7.82
2018-09-30T03:26:37.027Z,7.82
2018-09-30T03:27:17.432Z,7.94
2018-09-30T03:27:57.810Z,7.94
2018-09-30T03:28:38.250Z,7.89
2018-09-30T03:29:18.718Z,7.92
2018-09-30T03:29:59.114Z,7.94
2018-09-30T03:30:39.610Z,8
2018-09-30T03:31:20.009Z,7.79
2018-09-30T03:32:00.506Z,7.82
2018-09-30T03:32:40.928Z,7.73
2018-09-30T03:34:55.407Z,7.63
2018-09-30T03:35:35.756Z,7.62
2018-09-30T03:36:16.129Z,7.58
2018-09-30T03:36:56.547Z,7.47
2018-09-30T03:39:11.017Z,7.33
2018-09-30T03:39:53.097Z,7.26
2018-09-30T03:40:33.528Z,7.33
2018-09-30T03:41:13.935Z,7.39
2018-09-30T03:41:54.335Z,7.3
2018-09-30T03:42:34.730Z,7.19
2018-09-30T03:43:15.150Z,7.21
2018-09-30T03:43:55.547Z,7.11
2018-09-30T03:44:35.950Z,7.11
2018-09-30T03:45:16.418Z,7.04
2018-09-30T03:45:56.810Z,6.97
2018-09-30T03:46:37.287Z,6.97
2018-09-30T03:47:17.708Z,6.81
2018-09-30T03:47:58.188Z,6.79
2018-09-30T03:48:38.619Z,6.83
2018-09-30T03:49:19.033Z,6.75
2018-09-30T03:49:59.400Z,6.75
2018-09-30T03:50:40.209Z,6.68
2018-09-30T03:51:20.604Z,6.65
2018-09-30T03:52:59.787Z,6.73
2018-09-30T03:53:40.179Z,6.63
2018-09-30T03:54:20.592Z,6.75
2018-09-30T03:55:01.003Z,6.69
2018-09-30T03:55:41.400Z,6.73
2018-09-30T03:56:21.865Z,6.71
2018-09-30T03:57:02.231Z,6.75
2018-09-30T03:57:42.605Z,6.68
2018-09-30T03:59:31.008Z,6.83
2018-09-30T04:00:11.866Z,6.86
2018-09-30T04:00:52.244Z,6.82
2018-09-30T04:01:32.640Z,6.83
2018-09-30T04:02:13.053Z,6.93
2018-09-30T04:02:53.452Z,6.82
2018-09-30T04:03:33.997Z,6.89
2018-09-30T04:04:14.228Z,6.75
2018-09-30T04:04:54.640Z,6.89
2018-09-30T04:05:35.008Z,6.86
2018-09-30T04:06:15.408Z,6.83
2018-09-30T04:06:55.802Z,6.94
2018-09-30T04:07:36.219Z,6.94
2018-09-30T04:08:18.590Z,6.83
2018-09-30T04:08:58.994Z,6.79
2018-09-30T04:09:39.491Z,6.63
2018-09-30T04:10:19.784Z,6.55
2018-09-30T04:11:00.169Z,6.58
2018-09-30T04:11:40.570Z,6.5
2018-09-30T04:12:23.943Z,6.43
2018-09-30T04:13:04.338Z,6.42
2018-09-30T04:13:44.749Z,6.32
2018-09-30T04:14:25.147Z,6.39
2018-09-30T04:15:05.558Z,6.33
2018-09-30T04:15:45.961Z,6.5
2018-09-30T04:16:26.364Z,6.48
2018-09-30T04:17:06.879Z,6.5
2018-09-30T04:17:47.146Z,6.55
2018-09-30T04:18:27.539Z,6.68
2018-09-30T04:19:07.936Z,6.53
2018-09-30T04:19:48.314Z,6.53
2018-09-30T04:20:28.703Z,6.53
2018-09-30T04:21:09.136Z,6.63
2018-09-30T04:21:49.556Z,6.71
2018-09-30T04:22:29.953Z,6.69
2018-09-30T04:23:10.373Z,6.68
2018-09-30T04:23:50.777Z,6.82
2018-09-30T04:24:31.139Z,6.87
2018-09-30T04:25:11.577Z,6.9
2018-09-30T04:25:51.988Z,6.93
2018-09-30T04:26:32.379Z,6.93
2018-09-30T04:27:12.811Z,6.9
2018-09-30T05:07:26.446Z,5.02
2018-09-30T05:08:14.287Z,5.05
2018-09-30T05:09:01.657Z,5.12
2018-09-30T05:10:37.497Z,5.06
2018-09-30T05:11:18.675Z,5.09
2018-09-30T05:11:58.991Z,5.11
2018-09-30T05:12:39.446Z,5.17
2018-09-30T05:13:19.829Z,5.33
2018-09-30T05:14:00.228Z,5.33
2018-09-30T05:14:40.619Z,5.41
2018-09-30T05:15:21.008Z,5.59
2018-09-30T05:16:01.485Z,5.55
2018-09-30T05:16:41.807Z,5.58
2018-09-30T05:17:22.188Z,5.56
2018-09-30T05:18:02.635Z,5.55
2018-09-30T05:18:43.009Z,5.49
2018-09-30T05:19:23.403Z,5.42
2018-09-30T05:20:03.873Z,5.51
2018-09-30T05:20:44.310Z,5.59
2018-09-30T05:21:24.623Z,5.66
2018-09-30T05:23:02.128Z,5.6
2018-09-30T05:23:42.999Z,5.75
2018-09-30T05:24:23.161Z,5.7
2018-09-30T05:25:03.567Z,5.67
2018-09-30T05:25:44.024Z,5.73
2018-09-30T05:26:24.383Z,5.65
2018-09-30T05:27:04.827Z,5.7
2018-09-30T05:27:45.176Z,5.65
2018-09-30T05:28:25.614Z,5.66
2018-09-30T05:29:06.040Z,5.65
2018-09-30T05:30:44.046Z,5.73
2018-09-30T05:31:24.252Z,5.73
2018-09-30T05:32:04.545Z,5.78
2018-09-30T05:32:44.949Z,5.88
2018-09-30T05:33:25.359Z,5.9
2018-09-30T05:35:04.553Z,5.99
2018-09-30T05:35:45.118Z,6.11
2018-09-30T05:37:58.114Z,6.14
2018-09-30T05:38:38.209Z,6.06
2018-09-30T05:39:18.634Z,6.19
2018-09-30T05:39:59.018Z,6.11
2018-09-30T05:40:39.478Z,6.21
2018-09-30T05:41:19.799Z,6.32
2018-09-30T05:42:00.176Z,6.27
2018-09-30T05:42:40.574Z,6.3
2018-09-30T05:44:20.323Z,6.55
2018-09-30T05:46:21.167Z,6.97
2018-09-30T05:47:01.364Z,7.14
2018-09-30T05:47:41.776Z,7.21
2018-09-30T05:48:22.169Z,7.29
2018-09-30T05:49:02.628Z,7.48
2018-09-30T05:49:42.961Z,7.54
2018-09-30T05:50:23.386Z,7.69
2018-09-30T05:52:40.584Z,8.37
2018-09-30T05:53:26.281Z,8.54
2018-09-30T05:54:06.998Z,8.63
2018-09-30T05:54:47.395Z,8.71
2018-09-30T05:55:27.828Z,8.96
2018-09-30T05:56:08.195Z,8.91
2018-09-30T05:56:48.605Z,9.1
2018-09-30T05:57:29.097Z,9.19
2018-09-30T05:58:09.514Z,9.26
2018-09-30T05:58:49.848Z,9.35
2018-09-30T05:59:30.263Z,9.42
2018-09-30T06:00:10.676Z,9.56
2018-09-30T06:02:10.165Z,9.77
2018-09-30T06:02:50.517Z,9.89
2018-09-30T06:03:30.958Z,10.01
2018-09-30T06:04:11.372Z,10.11
2018-09-30T06:04:51.769Z,10.17
2018-09-30T06:05:32.181Z,10.39
2018-09-30T06:07:32.160Z,10.58
2018-09-30T06:09:47.396Z,11.05
2018-09-30T06:10:27.425Z,11.11
2018-09-30T06:11:07.794Z,11.09
2018-09-30T06:11:48.199Z,11.17
2018-09-30T06:12:28.625Z,11.2
2018-09-30T06:13:09.045Z,11.28
2018-09-30T06:13:49.552Z,11.44
2018-09-30T06:14:29.869Z,11.53
2018-09-30T06:15:10.277Z,11.64
2018-09-30T06:15:50.696Z,11.78
2018-09-30T06:16:31.064Z,11.96
2018-09-30T06:17:11.483Z,12.13
2018-09-30T06:17:51.891Z,12.13
2018-09-30T06:18:32.262Z,12.23
2018-09-30T06:19:12.685Z,12.31
2018-09-30T06:19:53.073Z,12.37
2018-09-30T06:20:33.495Z,12.61
2018-09-30T06:21:13.908Z,12.54
2018-09-30T06:21:54.305Z,12.55
2018-09-30T06:22:34.698Z,12.58
2018-09-30T06:23:15.122Z,12.58
2018-09-30T06:23:55.557Z,12.8
2018-09-30T06:24:35.932Z,12.89
2018-09-30T06:25:16.335Z,12.98
2018-09-30T06:25:56.752Z,12.95
2018-09-30T06:26:37.179Z,12.98
2018-09-30T06:27:17.597Z,13.12
2018-09-30T06:27:57.995Z,13.22
2018-09-30T06:28:38.430Z,13.35
2018-09-30T06:29:18.852Z,13.61
2018-09-30T06:29:59.238Z,13.61
2018-09-30T06:31:37.025Z,13.94
2018-09-30T06:33:47.864Z,14.63
2018-09-30T06:34:28.553Z,14.74
2018-09-30T06:35:08.956Z,14.8
2018-09-30T06:35:49.360Z,14.82
2018-09-30T06:36:29.776Z,14.74
2018-09-30T06:37:10.252Z,14.66
2018-09-30T06:37:50.648Z,14.75
2018-09-30T06:38:31.067Z,14.66
2018-09-30T06:39:11.496Z,14.67
2018-09-30T06:39:51.894Z,14.49
2018-09-30T06:40:32.416Z,14.41
2018-09-30T06:41:12.803Z,14.34
2018-09-30T06:41:53.209Z,14.23
2018-09-30T06:43:53.316Z,14.24
2018-09-30T06:44:35.715Z,14.27
2018-09-30T06:45:16.115Z,14.29
2018-09-30T06:45:59.080Z,14.31
2018-09-30T06:46:39.529Z,14.21
2018-09-30T06:47:20.011Z,14.09
2018-09-30T06:48:00.437Z,13.98
2018-09-30T06:48:40.956Z,13.88
2018-09-30T06:49:21.386Z,13.9
2018-09-30T06:50:04.530Z,13.84
2018-09-30T06:50:45.047Z,13.63
2018-09-30T06:51:25.383Z,13.65
2018-09-30T06:53:19.877Z,13.38
2018-09-30T06:54:00.854Z,13.48
2018-09-30T06:54:41.203Z,13.44
2018-09-30T06:56:20.444Z,13.66
2018-09-30T06:57:00.804Z,13.71
2018-09-30T06:57:41.216Z,13.59
2018-09-30T06:59:28.572Z,13.8
2018-09-30T07:00:08.887Z,13.88
2018-09-30T07:00:49.301Z,14.01
2018-09-30T07:01:29.730Z,14.12
2018-09-30T07:02:10.153Z,14.21
2018-09-30T07:02:50.554Z,14.35
2018-09-30T07:03:30.983Z,14.39
2018-09-30T07:04:11.417Z,14.44
2018-09-30T07:04:51.912Z,14.46
2018-09-30T07:05:32.269Z,14.42
2018-09-30T07:06:12.731Z,14.64
2018-09-30T07:06:53.116Z,14.64
2018-09-30T07:08:40.501Z,14.86
2018-09-30T07:09:21.573Z,14.91
2018-09-30T07:10:02.002Z,15
2018-09-30T07:10:42.402Z,15.19
2018-09-30T07:11:22.820Z,15.3
2018-09-30T07:12:03.247Z,15.34
2018-09-30T07:14:59.418Z,15.55
2018-09-30T07:15:39.883Z,15.62
2018-09-30T07:16:20.269Z,15.77
2018-09-30T07:17:00.776Z,15.86
2018-09-30T07:17:41.114Z,15.98
2018-09-30T07:18:21.535Z,15.98
2018-09-30T07:19:01.960Z,16.07
2018-09-30T07:19:42.362Z,16.14
2018-09-30T07:20:22.752Z,16.16
2018-09-30T07:21:03.173Z,16.25
2018-09-30T07:21:43.571Z,16.36
2018-09-30T07:23:38.097Z,16.65
2018-09-30T07:24:18.416Z,16.63
2018-09-30T07:24:58.823Z,16.66
2018-09-30T07:25:39.219Z,16.73
2018-09-30T07:26:19.617Z,16.8
2018-09-30T07:27:00.015Z,16.96
2018-09-30T07:29:14.540Z,17.17
2018-09-30T07:29:54.905Z,17.39
2018-09-30T07:30:35.312Z,17.63
2018-09-30T07:31:15.739Z,17.71
2018-09-30T07:31:56.141Z,17.89
2018-09-30T07:32:36.570Z,18.1
2018-09-30T07:33:16.970Z,18.16
2018-09-30T07:33:57.364Z,18.35
2018-09-30T07:34:37.753Z,18.35
2018-09-30T07:35:18.152Z,18.39
2018-09-30T07:36:55.368Z,18.51
2018-09-30T07:37:35.741Z,18.51
2018-09-30T07:38:16.151Z,18.54
2018-09-30T07:38:56.569Z,18.39
2018-09-30T07:39:37.039Z,18.31
2018-09-30T07:40:17.379Z,18.28
2018-09-30T07:40:57.812Z,18.39
2018-09-30T07:41:38.255Z,18.34
2018-09-30T07:42:18.632Z,18.35
2018-09-30T07:42:59.057Z,18.46
2018-09-30T07:43:39.474Z,18.51
2018-09-30T07:44:19.898Z,18.59
2018-09-30T07:45:00.279Z,18.68
2018-09-30T07:45:40.696Z,18.74
2018-09-30T07:46:21.152Z,18.71
2018-09-30T07:47:01.554Z,18.83
2018-09-30T07:48:48.819Z,18.86
2018-09-30T07:49:29.251Z,18.96
2018-09-30T07:50:09.667Z,19.09
2018-09-30T07:50:50.080Z,18.99
2018-09-30T07:51:30.470Z,18.94
2018-09-30T07:52:10.895Z,19.01
2018-09-30T07:52:51.307Z,19.02
2018-09-30T07:53:31.710Z,19.05
2018-09-30T07:54:12.109Z,19.1
2018-09-30T07:54:52.515Z,19.02
2018-09-30T07:55:32.916Z,18.99
2018-09-30T07:56:13.314Z,18.9
2018-09-30T07:56:53.728Z,18.97
2018-09-30T07:57:34.155Z,18.78
2018-09-30T07:59:31.696Z,18.86
2018-09-30T08:00:12.043Z,18.82
2018-09-30T08:00:52.452Z,19.02
2018-09-30T08:01:32.886Z,19.09
2018-09-30T08:02:13.319Z,19.13
2018-09-30T08:02:53.765Z,19.17
2018-09-30T08:03:34.145Z,19.25
2018-09-30T08:04:14.525Z,19.28
2018-09-30T08:06:06.944Z,19.01
2018-09-30T08:06:47.272Z,19.06
2018-09-30T08:07:27.689Z,19.15
2018-09-30T08:09:27.434Z,19.6
2018-09-30T08:10:07.596Z,19.76
2018-09-30T08:10:48.055Z,19.85
2018-09-30T08:11:28.414Z,19.94
2018-09-30T08:12:08.828Z,20.15
2018-09-30T08:12:49.245Z,20.08
2018-09-30T08:13:29.656Z,20.05
2018-09-30T08:14:10.061Z,20.15
2018-09-30T08:14:50.488Z,20.2
2018-09-30T08:15:30.953Z,20.34
2018-09-30T08:16:11.366Z,20.42
2018-09-30T08:16:51.801Z,20.63
2018-09-30T08:17:32.162Z,20.75
2018-09-30T08:18:12.595Z,20.96
2018-09-30T08:18:52.989Z,21.01
2018-09-30T08:19:33.380Z,21.27
2018-09-30T08:20:13.780Z,21.28
2018-09-30T08:20:54.175Z,21.45
2018-09-30T08:21:34.622Z,21.55
2018-09-30T08:22:15.013Z,21.64
2018-09-30T08:22:55.453Z,21.58
2018-09-30T08:23:35.821Z,21.81
2018-09-30T08:24:16.392Z,21.75
2018-09-30T08:24:59.508Z,21.94
2018-09-30T08:25:39.949Z,21.99
2018-09-30T08:26:20.362Z,22.08
2018-09-30T08:27:00.806Z,22.12
2018-09-30T08:27:41.233Z,22.2
2018-09-30T08:29:55.965Z,22.46
2018-09-30T08:30:36.712Z,22.56
2018-09-30T08:31:17.044Z,22.67
2018-09-30T08:31:57.465Z,22.75
2018-09-30T08:32:37.881Z,22.84
2018-09-30T08:33:18.309Z,22.84
2018-09-30T08:33:58.717Z,22.97
2018-09-30T08:34:39.125Z,22.93
2018-09-30T08:35:19.540Z,22.94
2018-09-30T08:35:59.953Z,23.04
2018-09-30T08:36:40.359Z,23
2018-09-30T08:37:20.813Z,23.16
2018-09-30T08:38:01.183Z,23.31
2018-09-30T08:40:01.275Z,23.67
2018-09-30T08:40:41.845Z,23.72
2018-09-30T08:41:22.253Z,23.74
2018-09-30T08:42:02.687Z,23.75
2018-09-30T08:42:43.073Z,23.9
2018-09-30T08:43:23.491Z,23.97
2018-09-30T08:44:03.922Z,24.04
2018-09-30T08:44:44.358Z,24.05
2018-09-30T08:45:24.753Z,24.15
2018-09-30T08:46:05.205Z,24.15
2018-09-30T08:46:45.636Z,24.27
2018-09-30T08:47:26.096Z,24.31
2018-09-30T08:48:06.433Z,24.19
2018-09-30T08:48:46.866Z,24.27
2018-09-30T08:49:27.376Z,24.33
2018-09-30T08:50:07.725Z,24.37
2018-09-30T08:50:48.118Z,24.52
2018-09-30T08:51:28.514Z,24.48
2018-09-30T08:53:07.716Z,24.53
2018-09-30T08:53:48.175Z,24.6
2018-09-30T08:54:28.565Z,24.7
2018-09-30T08:55:09.031Z,24.63
2018-09-30T08:55:49.433Z,24.56
2018-09-30T08:56:29.865Z,24.6
2018-09-30T08:57:10.293Z,24.68
2018-09-30T08:57:50.685Z,24.8
2018-09-30T08:58:31.110Z,24.84
2018-09-30T08:59:11.511Z,24.87
2018-09-30T08:59:51.934Z,24.94
2018-09-30T09:00:32.339Z,25.07
2018-09-30T09:01:12.747Z,25.16
2018-09-30T09:01:53.145Z,25.29
2018-09-30T09:02:33.587Z,25.42
2018-09-30T09:03:14.055Z,25.46
2018-09-30T09:03:54.409Z,25.57
2018-09-30T09:04:34.829Z,25.53
2018-09-30T09:05:15.271Z,25.51
2018-09-30T09:05:55.757Z,25.59
2018-09-30T09:06:36.152Z,25.61
2018-09-30T09:07:16.529Z,25.72
2018-09-30T09:07:56.975Z,25.69
2018-09-30T09:08:37.415Z,25.91
2018-09-30T09:09:17.823Z,26.16
2018-09-30T09:09:58.298Z,26.28
2018-09-30T09:10:38.639Z,26.35
2018-09-30T09:11:19.035Z,26.35
2018-09-30T09:11:59.452Z,26.34
2018-09-30T09:12:39.901Z,26.44
2018-09-30T09:13:20.363Z,26.51
2018-09-30T09:14:00.806Z,26.42
2018-09-30T09:14:41.209Z,26.42
2018-09-30T09:15:21.703Z,26.38
2018-09-30T09:16:02.077Z,26.36
2018-09-30T09:16:42.510Z,26.53
2018-09-30T09:17:22.872Z,26.51
2018-09-30T09:18:03.297Z,26.6
2018-09-30T09:18:43.746Z,26.57
2018-09-30T09:19:24.107Z,26.65
2018-09-30T09:20:04.545Z,26.75
2018-09-30T09:20:44.947Z,26.86
2018-09-30T09:21:25.368Z,26.91
2018-09-30T09:22:05.795Z,26.94
2018-09-30T09:22:46.266Z,26.93
2018-09-30T09:23:26.636Z,26.88
2018-09-30T09:24:07.037Z,26.94
2018-09-30T09:24:47.465Z,27.11
2018-09-30T09:25:27.879Z,27.25
2018-09-30T09:26:08.260Z,27.38
2018-09-30T09:26:48.665Z,27.43
2018-09-30T09:27:29.062Z,27.43
2018-09-30T09:28:09.563Z,27.4
2018-09-30T09:28:49.884Z,27.45
2018-09-30T09:29:30.300Z,27.52
2018-09-30T09:30:10.716Z,27.65
2018-09-30T09:30:51.146Z,27.84
2018-09-30T09:31:31.606Z,27.88
2018-09-30T09:32:11.921Z,27.91
2018-09-30T09:32:52.360Z,28.02
2018-09-30T09:33:32.716Z,27.96
2018-09-30T09:34:13.119Z,28.01
2018-09-30T09:34:53.528Z,27.9
2018-09-30T09:35:33.947Z,27.99
2018-09-30T09:36:14.358Z,27.96
2018-09-30T09:36:54.763Z,28.05
2018-09-30T09:37:35.179Z,28.2
2018-09-30T09:39:22.451Z,28.36
2018-09-30T09:40:02.914Z,28.39
2018-09-30T09:40:43.299Z,28.48
2018-09-30T09:41:23.737Z,28.51
2018-09-30T09:42:04.178Z,28.5
2018-09-30T09:42:44.551Z,28.62
2018-09-30T09:43:24.955Z,28.65
2018-09-30T09:44:05.398Z,28.74
2018-09-30T09:44:45.813Z,28.7
2018-09-30T09:45:26.240Z,28.82
2018-09-30T09:46:06.657Z,28.91
2018-09-30T09:46:47.089Z,28.91
2018-09-30T09:47:27.496Z,28.92
2018-09-30T09:48:15.070Z,28.83
2018-09-30T09:48:55.425Z,28.91
2018-09-30T09:49:38.518Z,28.95
2018-09-30T09:50:56.314Z,28.94
2018-09-30T09:51:36.743Z,28.97
2018-09-30T09:52:17.196Z,29.03
2018-09-30T09:52:57.615Z,29.05
2018-09-30T09:53:38.032Z,29.15
2018-09-30T09:55:20.018Z,29.23
2018-09-30T09:56:00.568Z,29.2
2018-09-30T09:56:40.964Z,29.27
2018-09-30T09:57:21.426Z,29.26
2018-09-30T09:58:01.798Z,29.37
2018-09-30T10:01:21.643Z,29.48
2018-09-30T10:02:01.785Z,29.49
2018-09-30T10:02:42.294Z,29.63
2018-09-30T10:03:23.170Z,29.67
2018-09-30T10:04:03.633Z,29.62
2018-09-30T10:04:45.279Z,29.57
2018-09-30T10:05:25.623Z,29.58
2018-09-30T10:07:02.971Z,29.7
2018-09-30T10:07:43.871Z,29.81
2018-09-30T10:08:24.698Z,29.94
2018-09-30T10:09:05.157Z,30.07
2018-09-30T10:09:45.567Z,30.04
2018-09-30T10:10:25.970Z,30.16
2018-09-30T10:11:06.706Z,30.19
2018-09-30T10:13:23.343Z,30.19
2018-09-30T10:14:03.922Z,30.21
2018-09-30T10:14:44.324Z,30.19
2018-09-30T10:15:24.741Z,30.22
2018-09-30T10:16:05.209Z,30.06
2018-09-30T10:16:46.218Z,30.11
2018-09-30T10:17:26.671Z,30.08
2018-09-30T10:18:07.337Z,29.92
2018-09-30T10:19:02.138Z,29.67
2018-09-30T10:19:42.574Z,29.69
2018-09-30T10:20:22.999Z,29.6
2018-09-30T10:21:03.413Z,29.73
2018-09-30T10:21:43.844Z,29.71
2018-09-30T10:22:24.229Z,29.81
2018-09-30T10:23:04.610Z,29.95
2018-09-30T10:23:45.012Z,30.11
2018-09-30T10:24:25.426Z,30.13
2018-09-30T10:26:40.348Z,30.18
2018-09-30T10:27:20.474Z,30.23
2018-09-30T10:28:01.299Z,30.22
2018-09-30T11:06:35.114Z,30.19
2018-09-30T11:07:15.439Z,30.21
2018-09-30T11:07:55.876Z,30
2018-09-30T11:08:36.267Z,29.88
2018-09-30T11:09:16.691Z,29.81
2018-09-30T11:09:57.100Z,29.71
2018-09-30T11:10:37.513Z,29.69
2018-09-30T11:11:17.952Z,29.85
2018-09-30T11:11:58.360Z,29.67
2018-09-30T11:12:38.754Z,29.82
2018-09-30T11:13:19.176Z,29.82
2018-09-30T11:13:59.614Z,29.85
2018-09-30T11:14:39.962Z,29.82
2018-09-30T11:15:20.634Z,29.71
2018-09-30T11:16:02.252Z,29.81
2018-09-30T11:16:42.733Z,29.91
2018-09-30T11:17:23.158Z,29.92
2018-09-30T11:18:04.036Z,30
2018-09-30T11:18:45.537Z,30.03
2018-09-30T11:19:25.945Z,30.1
2018-09-30T11:20:06.543Z,30.11
2018-09-30T11:20:46.938Z,30.16
2018-09-30T11:21:27.355Z,30.08
2018-09-30T11:22:07.773Z,30.1
2018-09-30T11:22:48.196Z,29.95
2018-09-30T11:27:39.967Z,29.97